Time;durP1;ratioP1;P1;durP2;ratioP2;P2;SDS_P1;SDS_P2;PMS_P1;PMS_P2;Temp;Humidity;BMP_temperature;BMP_pressure;BME280_temperature;BME280_humidity;BME280_pressure;Samples;Min_cycle;Max_cycle;Signal;HPM_P1;HPM_P2
2023/05/24 00:01:01;;;;;;;101.07;93.13;;;;;;;12.46;100.00;100817.94;5045232;28;20050;-82
2023/05/24 00:03:29;;;;;;;86.50;79.18;;;;;;;12.59;100.00;100825.84;5037680;28;20502;-82
2023/05/24 00:05:56;;;;;;;85.68;78.78;;;;;;;12.44;100.00;100814.69;5039449;28;20057;-78
2023/05/24 00:08:25;;;;;;;74.32;67.97;;;;;;;12.42;100.00;100816.75;5032280;28;20057;-78
2023/05/24 00:10:51;;;;;;;78.00;71.10;;;;;;;12.43;100.00;100813.03;5039111;28;20442;-75
2023/05/24 00:13:18;;;;;;;76.95;70.28;;;;;;;12.20;100.00;100815.47;5039402;28;20047;-75
2023/05/24 00:15:45;;;;;;;70.45;63.85;;;;;;;12.43;100.00;100804.22;5037345;28;20535;-83
2023/05/24 00:18:16;;;;;;;69.28;62.72;;;;;;;12.09;100.00;100809.75;5041373;28;20053;-81
2023/05/24 00:20:43;;;;;;;74.68;68.18;;;;;;;12.34;100.00;100804.50;5040064;28;20045;-82
2023/05/24 00:23:10;;;;;;;63.22;57.35;;;;;;;11.97;100.00;100802.66;5040054;28;20048;-82
2023/05/24 00:25:38;;;;;;;77.72;71.25;;;;;;;12.12;100.00;100806.69;5037105;28;20053;-83
2023/05/24 00:28:07;;;;;;;71.30;65.10;;;;;;;11.89;100.00;100806.38;5032950;28;20132;-85
2023/05/24 00:30:35;;;;;;;68.32;62.33;;;;;;;11.95;100.00;100802.88;5045674;28;20049;-85
2023/05/24 00:33:02;;;;;;;83.90;76.70;;;;;;;12.07;100.00;100798.53;5042210;28;20137;-85
2023/05/24 00:35:28;;;;;;;77.63;71.00;;;;;;;12.20;100.00;100808.28;5039770;28;20462;-85
2023/05/24 00:37:56;;;;;;;69.65;63.03;;;;;;;12.07;100.00;100803.00;5048929;28;20056;-85
2023/05/24 00:40:22;;;;;;;68.22;61.75;;;;;;;11.98;100.00;100790.97;5043844;28;20041;-85
2023/05/24 00:42:51;;;;;;;75.43;68.60;;;;;;;12.14;100.00;100801.16;5040120;28;20045;-85
2023/05/24 00:45:17;;;;;;;68.97;62.53;;;;;;;12.13;100.00;100802.16;5041366;28;20049;-85
2023/05/24 00:47:45;;;;;;;66.10;60.00;;;;;;;12.01;100.00;100803.88;5040184;28;20056;-85
2023/05/24 00:50:15;;;;;;;68.45;62.35;;;;;;;12.00;100.00;100791.59;5044563;28;20490;-85
2023/05/24 00:52:43;;;;;;;76.53;69.78;;;;;;;11.86;100.00;100799.66;5038985;28;20474;-85
2023/05/24 00:55:10;;;;;;;66.05;59.95;;;;;;;12.24;100.00;100808.66;5040019;28;20045;-85
2023/05/24 00:57:37;;;;;;;74.45;67.95;;;;;;;11.53;100.00;100810.41;5049414;28;20056;-84
2023/05/24 01:00:10;;;;;;;83.35;76.30;;;;;;;12.01;100.00;100807.38;5038957;28;20483;-77
2023/05/24 01:02:37;;;;;;;80.55;73.80;;;;;;;12.00;100.00;100804.91;5047605;28;20510;-77
2023/05/24 01:05:05;;;;;;;72.05;65.78;;;;;;;11.95;100.00;100813.50;5039630;28;20087;-77
2023/05/24 01:07:41;;;;;;;72.10;65.57;;;;;;;12.18;100.00;100804.19;5039341;28;20057;-85
2023/05/24 01:10:16;;;;;;;71.88;65.57;;;;;;;12.31;100.00;100810.25;5039549;28;20049;-84
2023/05/24 01:12:53;;;;;;;58.10;52.55;;;;;;;12.03;100.00;100807.94;5030685;28;20503;-83
2023/05/24 01:15:28;;;;;;;68.43;61.92;;;;;;;12.24;100.00;100809.47;5030455;28;20041;-83
2023/05/24 01:18:04;;;;;;;67.55;61.28;;;;;;;12.12;100.00;100801.34;5041397;28;20432;-75
2023/05/24 01:20:33;;;;;;;62.03;56.20;;;;;;;12.32;100.00;100811.88;5045018;28;20205;-82
2023/05/24 01:23:07;;;;;;;65.43;59.33;;;;;;;11.81;100.00;100806.63;5041845;28;20084;-75
2023/05/24 01:26:00;;;;;;;62.65;56.78;;;;;;;11.67;100.00;100806.66;5041486;28;20053;-77
2023/05/24 01:28:31;;;;;;;65.93;59.40;;;;;;;11.87;100.00;100814.59;5032924;28;20055;-84
2023/05/24 01:30:59;;;;;;;67.28;60.85;;;;;;;11.76;100.00;100817.88;5041756;28;20044;-84
2023/05/24 01:33:27;;;;;;;63.85;57.58;;;;;;;11.78;100.00;100823.81;5040718;28;20044;-84
2023/05/24 01:35:53;;;;;;;71.55;64.63;;;;;;;12.01;100.00;100825.16;5039871;28;20053;-85
2023/05/24 01:38:20;;;;;;;79.10;72.13;;;;;;;11.97;100.00;100819.44;5036036;28;20052;-85
2023/05/24 01:40:52;;;;;;;108.95;100.80;;;;;;;11.60;100.00;100816.50;5040844;28;20426;-84
2023/05/24 01:43:29;;;;;;;86.50;79.03;;;;;;;11.49;100.00;100816.34;5044034;28;20056;-84
2023/05/24 01:46:03;;;;;;;76.35;69.57;;;;;;;11.60;100.00;100821.84;5035175;28;20061;-84
2023/05/24 01:48:38;;;;;;;83.38;76.13;;;;;;;11.66;100.00;100825.50;5041745;28;20499;-84
2023/05/24 01:51:10;;;;;;;91.47;83.93;;;;;;;11.83;100.00;100821.34;5038158;28;20057;-77
2023/05/24 01:53:45;;;;;;;85.82;78.45;;;;;;;11.87;100.00;100827.91;5037487;28;20049;-77
2023/05/24 01:56:13;;;;;;;82.43;75.13;;;;;;;11.87;100.00;100827.91;5040922;28;20057;-77
2023/05/24 01:58:41;;;;;;;73.50;66.60;;;;;;;11.94;100.00;100827.06;5038822;28;20052;-77
2023/05/24 02:01:10;;;;;;;86.22;79.00;;;;;;;11.92;100.00;100824.59;5036380;28;20056;-77
2023/05/24 02:03:37;;;;;;;82.63;75.35;;;;;;;11.97;100.00;100824.78;5042885;28;20115;-77
2023/05/24 02:06:05;;;;;;;83.05;76.30;;;;;;;11.07;100.00;100834.41;5039505;28;20057;-77
2023/05/24 02:08:32;;;;;;;80.38;73.10;;;;;;;11.07;100.00;100837.06;5035732;28;20053;-76
2023/05/24 02:10:58;;;;;;;66.07;60.13;;;;;;;11.11;100.00;100828.50;5043797;28;20041;-77
2023/05/24 02:13:25;;;;;;;79.07;72.18;;;;;;;11.41;100.00;100825.38;5041363;28;20045;-76
2023/05/24 02:15:52;;;;;;;69.07;62.38;;;;;;;11.41;100.00;100833.34;5037990;28;20506;-77
2023/05/24 02:18:21;;;;;;;76.35;69.13;;;;;;;11.50;100.00;100828.59;5042701;28;20495;-77
2023/05/24 02:20:48;;;;;;;75.45;68.88;;;;;;;11.55;100.00;100826.16;5043519;28;20046;-77
2023/05/24 02:23:15;;;;;;;70.85;64.43;;;;;;;11.16;100.00;100819.88;5041935;28;20049;-77
2023/05/24 02:25:41;;;;;;;62.88;56.78;;;;;;;11.11;100.00;100831.16;5045041;28;20041;-77
2023/05/24 02:28:08;;;;;;;73.38;66.65;;;;;;;11.13;100.00;100828.28;5035030;28;20046;-77
2023/05/24 02:30:38;;;;;;;74.25;67.65;;;;;;;10.95;100.00;100832.41;5042258;28;20053;-75
2023/05/24 02:33:05;;;;;;;59.47;53.78;;;;;;;11.02;100.00;100828.94;5033307;28;20060;-82
2023/05/24 02:35:33;;;;;;;59.28;53.65;;;;;;;11.13;100.00;100836.25;5042001;28;20118;-75
2023/05/24 02:38:02;;;;;;;55.90;50.60;;;;;;;11.23;100.00;100832.16;5040868;28;20045;-83
2023/05/24 02:40:29;;;;;;;59.00;53.30;;;;;;;10.85;100.00;100841.78;5040136;28;20053;-83
2023/05/24 02:42:56;;;;;;;53.72;48.65;;;;;;;10.38;100.00;100835.59;5042522;28;20055;-83
2023/05/24 02:45:23;;;;;;;52.25;47.03;;;;;;;10.61;100.00;100830.75;5042653;28;20049;-83
2023/05/24 02:47:49;;;;;;;55.53;50.28;;;;;;;10.80;100.00;100833.59;5042945;28;20052;-75
2023/05/24 02:50:16;;;;;;;54.45;49.25;;;;;;;11.10;100.00;100829.50;5041840;28;20045;-75
2023/05/24 02:52:45;;;;;;;57.97;52.15;;;;;;;11.10;100.00;100834.81;5043202;28;20049;-83
2023/05/24 02:55:12;;;;;;;55.47;49.70;;;;;;;11.06;100.00;100841.56;5035823;28;20052;-75
2023/05/24 02:57:38;;;;;;;55.08;49.60;;;;;;;10.85;100.00;100831.97;5041260;28;20048;-75
2023/05/24 03:00:10;;;;;;;57.50;51.42;;;;;;;11.17;100.00;100837.50;5043647;28;20450;-75
2023/05/24 03:02:39;;;;;;;60.42;54.45;;;;;;;11.18;100.00;100828.47;5033995;28;20049;-75
2023/05/24 03:05:07;;;;;;;59.83;54.15;;;;;;;11.16;100.00;100831.34;5041663;28;20461;-76
2023/05/24 03:07:34;;;;;;;57.78;52.25;;;;;;;11.18;100.00;100839.94;5046664;28;20056;-76
2023/05/24 03:10:02;;;;;;;64.35;58.55;;;;;;;11.30;100.00;100832.13;5043417;28;20050;-75
2023/05/24 03:12:29;;;;;;;64.57;58.47;;;;;;;11.27;100.00;100845.03;5043784;28;20056;-75
2023/05/24 03:14:56;;;;;;;56.17;50.95;;;;;;;11.08;100.00;100844.03;5043640;28;20061;-75
2023/05/24 03:17:23;;;;;;;61.85;56.00;;;;;;;11.21;100.00;100849.34;5037835;28;20487;-75
2023/05/24 03:19:51;;;;;;;56.83;51.67;;;;;;;11.40;100.00;100851.13;5045026;28;20048;-75
2023/05/24 03:22:18;;;;;;;59.50;54.10;;;;;;;11.68;100.00;100840.22;5040454;28;20075;-75
2023/05/24 03:24:46;;;;;;;60.42;54.92;;;;;;;11.72;100.00;100843.28;5041196;28;20050;-75
2023/05/24 03:27:14;;;;;;;59.20;53.58;;;;;;;11.70;100.00;100843.47;5037954;28;20064;-76
2023/05/24 03:29:41;;;;;;;62.42;56.90;;;;;;;11.94;100.00;100843.84;5041542;28;20048;-75
2023/05/24 03:32:07;;;;;;;56.33;51.13;;;;;;;12.01;100.00;100846.47;5041566;28;20541;-75
2023/05/24 03:34:34;;;;;;;59.00;53.42;;;;;;;11.96;100.00;100849.78;5045904;28;20491;-82
2023/05/24 03:37:01;;;;;;;59.00;53.65;;;;;;;11.77;100.00;100846.13;5039452;28;20148;-75
2023/05/24 03:39:28;;;;;;;56.20;51.08;;;;;;;11.79;100.00;100838.75;5038595;28;20049;-75
2023/05/24 03:41:55;;;;;;;56.80;51.53;;;;;;;11.90;100.00;100842.63;5044080;28;20466;-75
2023/05/24 03:44:23;;;;;;;61.60;55.28;;;;;;;12.18;100.00;100839.63;5039784;28;20045;-75
2023/05/24 03:46:50;;;;;;;61.47;55.75;;;;;;;12.28;100.00;100842.63;5042547;28;20057;-76
2023/05/24 03:49:17;;;;;;;65.57;59.83;;;;;;;12.26;100.00;100847.38;5041050;28;20086;-75
2023/05/24 03:51:44;;;;;;;60.40;55.00;;;;;;;12.49;100.00;100852.13;5031213;28;20450;-75
2023/05/24 03:54:10;;;;;;;65.75;59.55;;;;;;;12.70;100.00;100850.16;5036158;28;20056;-75
2023/05/24 03:56:37;;;;;;;56.47;51.17;;;;;;;12.83;100.00;100842.06;5040608;28;20049;-75
2023/05/24 03:59:04;;;;;;;54.60;49.70;;;;;;;12.88;100.00;100852.88;5041578;28;20510;-77
2023/05/24 04:01:35;;;;;;;57.03;51.65;;;;;;;12.82;100.00;100853.75;5040144;28;20052;-77
2023/05/24 04:04:02;;;;;;;54.95;49.95;;;;;;;12.93;100.00;100854.91;5041546;28;20152;-77
2023/05/24 04:06:29;;;;;;;54.03;49.00;;;;;;;12.96;100.00;100852.59;5044874;28;20048;-77
2023/05/24 04:08:56;;;;;;;55.22;50.25;;;;;;;13.16;100.00;100852.44;5039176;28;20064;-77
2023/05/24 04:11:26;;;;;;;63.58;58.05;;;;;;;12.96;100.00;100860.59;5040345;28;20057;-85
2023/05/24 04:13:54;;;;;;;55.80;50.90;;;;;;;12.97;100.00;100864.09;5044264;28;20426;-84
2023/05/24 04:16:22;;;;;;;60.40;55.05;;;;;;;13.04;100.00;100868.34;5038785;28;20429;-77
2023/05/24 04:18:51;;;;;;;59.63;54.25;;;;;;;13.22;100.00;100866.72;5042390;28;20128;-77
2023/05/24 04:21:17;;;;;;;61.20;55.90;;;;;;;13.35;100.00;100874.66;5037448;28;20675;-85
2023/05/24 04:23:44;;;;;;;65.60;59.30;;;;;;;13.61;100.00;100864.72;5041267;28;20053;-78
2023/05/24 04:26:11;;;;;;;62.45;56.88;;;;;;;13.64;100.00;100865.09;5041263;28;20053;-77
2023/05/24 04:28:38;;;;;;;67.00;61.08;;;;;;;13.63;100.00;100865.34;5047707;28;20045;-84
2023/05/24 04:31:10;;;;;;;68.32;61.47;;;;;;;13.88;100.00;100865.25;5038986;28;20052;-85
2023/05/24 04:33:38;;;;;;;67.30;61.13;;;;;;;13.87;100.00;100861.75;5041160;28;20052;-85
2023/05/24 04:36:07;;;;;;;69.35;63.17;;;;;;;13.88;100.00;100870.59;5041495;28;20093;-85
2023/05/24 04:38:35;;;;;;;68.68;62.08;;;;;;;13.85;100.00;100866.50;5041109;28;20049;-85
2023/05/24 04:41:02;;;;;;;60.45;54.83;;;;;;;14.01;100.00;100867.78;5039794;28;20053;-85
2023/05/24 04:43:29;;;;;;;59.20;53.72;;;;;;;14.24;100.00;100861.69;5030855;28;20081;-85
2023/05/24 04:45:56;;;;;;;63.03;57.38;;;;;;;14.34;100.00;100870.00;5037578;28;20423;-85
2023/05/24 04:48:23;;;;;;;61.45;55.60;;;;;;;14.30;100.00;100863.47;5044869;28;20509;-85
2023/05/24 04:50:51;;;;;;;59.25;53.67;;;;;;;14.58;100.00;100872.75;5039379;28;20045;-77
2023/05/24 04:53:19;;;;;;;58.83;53.47;;;;;;;14.53;100.00;100869.97;5039183;28;20143;-77
2023/05/24 04:55:47;;;;;;;62.33;56.17;;;;;;;14.72;100.00;100873.38;5039210;28;20056;-77
2023/05/24 04:58:14;;;;;;;61.30;55.65;;;;;;;14.79;100.00;100872.22;5036675;28;20052;-77
2023/05/24 05:00:42;;;;;;;64.32;58.83;;;;;;;14.99;100.00;100874.59;5035578;28;20042;-77
2023/05/24 05:03:10;;;;;;;62.72;57.03;;;;;;;14.92;100.00;100873.88;5043233;28;20049;-77
2023/05/24 05:05:37;;;;;;;62.38;56.47;;;;;;;15.35;100.00;100872.75;5040154;28;20541;-77
2023/05/24 05:08:03;;;;;;;63.30;57.47;;;;;;;15.24;100.00;100878.91;5038227;28;20041;-77
2023/05/24 05:10:32;;;;;;;63.88;58.17;;;;;;;15.29;100.00;100874.47;5041275;28;20450;-77
2023/05/24 05:12:59;;;;;;;63.08;57.67;;;;;;;15.45;100.00;100875.63;5038911;28;20050;-77
2023/05/24 05:15:27;;;;;;;59.47;54.17;;;;;;;15.48;100.00;100877.03;5036559;28;20060;-77
2023/05/24 05:17:53;;;;;;;62.95;57.25;;;;;;;15.88;100.00;100877.09;5041085;28;20052;-77
2023/05/24 05:20:20;;;;;;;61.95;56.25;;;;;;;15.91;100.00;100875.81;5041238;28;20049;-77
2023/05/24 05:22:47;;;;;;;66.65;60.95;;;;;;;16.14;100.00;100878.41;5034994;28;20053;-77
2023/05/24 05:25:14;;;;;;;68.32;62.40;;;;;;;16.14;100.00;100878.41;5043716;28;20056;-77
2023/05/24 05:27:43;;;;;;;69.55;63.65;;;;;;;16.38;100.00;100886.38;5031813;28;20053;-77
2023/05/24 05:30:11;;;;;;;65.03;59.25;;;;;;;16.54;100.00;100890.13;5041464;28;20049;-77
2023/05/24 05:32:38;;;;;;;67.13;61.53;;;;;;;16.54;100.00;100890.13;5040622;28;20053;-77
2023/05/24 05:35:08;;;;;;;70.07;64.22;;;;;;;16.79;100.00;100887.91;5040906;28;20127;-77
2023/05/24 05:37:37;;;;;;;70.53;64.43;;;;;;;16.69;100.00;100887.72;5032565;28;20056;-77
2023/05/24 05:40:04;;;;;;;72.60;66.90;;;;;;;17.08;100.00;100896.72;5030475;28;20060;-77
2023/05/24 05:42:31;;;;;;;66.25;60.88;;;;;;;17.33;100.00;100898.94;5038563;28;20085;-77
2023/05/24 05:45:00;;;;;;;55.85;50.95;;;;;;;17.03;100.00;100898.50;5039887;28;20059;-77
2023/05/24 05:47:26;;;;;;;56.60;51.33;;;;;;;17.60;100.00;100896.38;5042458;28;20477;-85
2023/05/24 05:49:53;;;;;;;61.28;56.03;;;;;;;17.67;100.00;100901.59;5048365;28;20056;-85
2023/05/24 05:52:20;;;;;;;56.75;51.85;;;;;;;17.60;100.00;100909.00;5037044;28;20053;-85
2023/05/24 05:54:47;;;;;;;56.08;51.33;;;;;;;17.82;100.00;100899.13;5043900;28;20057;-85
2023/05/24 05:57:15;;;;;;;65.10;60.05;;;;;;;18.06;100.00;100915.81;5037291;28;20058;-85
2023/05/24 05:59:42;;;;;;;62.70;57.78;;;;;;;18.37;100.00;100907.28;5039082;28;20088;-85
2023/05/24 06:02:11;;;;;;;58.58;54.10;;;;;;;18.58;100.00;100908.28;5051845;28;20048;-85
2023/05/24 06:04:38;;;;;;;52.97;48.67;;;;;;;18.52;100.00;100900.19;5044965;28;20076;-85
2023/05/24 06:07:06;;;;;;;61.35;56.85;;;;;;;18.76;100.00;100906.09;5045244;28;20568;-85
2023/05/24 06:09:33;;;;;;;53.67;49.17;;;;;;;18.94;100.00;100909.44;5045317;28;20057;-85
2023/05/24 06:12:00;;;;;;;62.45;57.35;;;;;;;19.33;100.00;100910.00;5043461;28;20048;-85
2023/05/24 06:14:26;;;;;;;58.75;53.85;;;;;;;19.40;100.00;100915.19;5042827;28;20049;-85
2023/05/24 06:16:54;;;;;;;48.35;44.25;;;;;;;19.23;100.00;100908.06;5042958;28;20053;-85
2023/05/24 06:19:22;;;;;;;47.30;42.97;;;;;;;19.40;100.00;100907.91;5043324;28;20412;-85
2023/05/24 06:21:49;;;;;;;43.72;39.80;;;;;;;19.32;100.00;100908.38;5045602;28;20515;-85
2023/05/24 06:24:19;;;;;;;43.92;40.00;;;;;;;19.53;100.00;100908.50;5044671;28;20045;-85
2023/05/24 06:26:46;;;;;;;40.33;36.53;;;;;;;19.76;100.00;100910.00;5042658;28;20056;-85
2023/05/24 06:29:13;;;;;;;39.38;35.67;;;;;;;19.95;100.00;100904.97;5039795;28;20522;-84
2023/05/24 06:31:41;;;;;;;38.72;35.00;;;;;;;20.01;100.00;100906.63;5042255;28;20080;-85
2023/05/24 06:34:07;;;;;;;35.58;32.28;;;;;;;20.33;100.00;100901.88;5046025;28;20078;-85
2023/05/24 06:36:41;;;;;;;37.05;33.65;;;;;;;20.35;100.00;100901.59;5045218;28;20049;-85
2023/05/24 06:39:09;;;;;;;36.03;32.92;;;;;;;20.29;100.00;100906.16;5042140;28;20045;-85
2023/05/24 06:41:36;;;;;;;38.13;34.70;;;;;;;20.44;100.00;100899.97;5043545;28;20045;-85
2023/05/24 06:44:03;;;;;;;35.28;32.38;;;;;;;20.61;100.00;100898.97;5043693;28;20122;-78
2023/05/24 06:46:30;;;;;;;37.20;33.90;;;;;;;20.82;100.00;100908.69;5043035;28;20057;-78
2023/05/24 06:48:57;;;;;;;36.58;32.97;;;;;;;20.95;100.00;100913.56;5041557;28;20416;-77
2023/05/24 06:51:24;;;;;;;32.65;29.85;;;;;;;20.89;100.00;100901.13;5042673;28;20045;-78
2023/05/24 06:53:52;;;;;;;35.25;31.92;;;;;;;21.19;100.00;100900.31;5048805;28;20050;-77
2023/05/24 06:56:20;;;;;;;27.83;25.55;;;;;;;20.88;100.00;100899.53;5042537;28;20049;-78
2023/05/24 06:58:47;;;;;;;31.80;28.75;;;;;;;20.85;100.00;100891.13;5046312;28;20103;-78
2023/05/24 07:01:15;;;;;;;34.65;31.30;;;;;;;21.20;100.00;100899.22;5040915;28;20104;-78
2023/05/24 07:03:42;;;;;;;30.33;27.83;;;;;;;21.18;100.00;100897.88;5037636;28;20060;-77
2023/05/24 07:06:12;;;;;;;27.65;25.08;;;;;;;20.99;100.00;100894.91;5042383;28;20059;-78
2023/05/24 07:08:39;;;;;;;27.77;25.40;;;;;;;21.19;100.00;100897.59;5041192;28;20075;-78
2023/05/24 07:11:08;;;;;;;26.13;23.88;;;;;;;21.42;100.00;100898.13;5041739;28;20049;-78
2023/05/24 07:13:35;;;;;;;27.65;25.35;;;;;;;21.67;100.00;100894.56;5039187;28;20049;-77
2023/05/24 07:16:02;;;;;;;26.10;23.90;;;;;;;21.78;100.00;100895.31;5043672;28;20511;-78
2023/05/24 07:18:30;;;;;;;27.38;25.10;;;;;;;21.94;100.00;100883.38;5042817;28;20056;-78
2023/05/24 07:20:57;;;;;;;28.23;25.88;;;;;;;21.94;100.00;100891.47;5041600;28;20123;-78
2023/05/24 07:23:24;;;;;;;28.95;26.42;;;;;;;22.29;100.00;100884.28;5049776;28;20454;-78
2023/05/24 07:25:51;;;;;;;26.50;24.10;;;;;;;22.27;100.00;100883.75;5043476;28;20094;-78
2023/05/24 07:28:19;;;;;;;25.92;23.67;;;;;;;22.15;100.00;100879.47;5034468;28;20128;-77
2023/05/24 07:30:46;;;;;;;26.15;23.83;;;;;;;22.23;100.00;100886.19;5041863;28;20212;-78
2023/05/24 07:33:13;;;;;;;25.63;23.58;;;;;;;22.32;100.00;100883.72;5041785;28;20136;-78
2023/05/24 07:35:40;;;;;;;26.52;24.35;;;;;;;22.59;100.00;100885.97;5031715;28;20521;-78
2023/05/24 07:38:07;;;;;;;24.85;22.75;;;;;;;22.36;100.00;100882.88;5034366;28;20054;-78
2023/05/24 07:40:37;;;;;;;25.35;23.13;;;;;;;22.22;100.00;100890.00;5034255;28;20110;-78
2023/05/24 07:43:04;;;;;;;26.30;23.70;;;;;;;22.22;100.00;100886.50;5042433;28;20037;-78
2023/05/24 07:45:32;;;;;;;27.13;24.58;;;;;;;22.91;100.00;100898.19;5041070;28;20045;-77
2023/05/24 07:48:01;;;;;;;27.98;25.60;;;;;;;22.75;100.00;100889.34;5040768;28;20136;-78
2023/05/24 07:50:28;;;;;;;25.55;23.48;;;;;;;22.11;100.00;100883.78;5031508;28;20434;-78
2023/05/24 07:52:55;;;;;;;26.35;24.10;;;;;;;22.40;100.00;100888.53;5040163;28;20049;-85
2023/05/24 07:55:22;;;;;;;27.05;24.77;;;;;;;22.83;100.00;100888.75;5045788;28;20461;-85
2023/05/24 07:57:49;;;;;;;24.77;22.55;;;;;;;23.12;100.00;100896.94;5051370;28;20122;-85
2023/05/24 08:00:18;;;;;;;24.30;22.50;;;;;;;23.20;100.00;100888.16;5042917;28;20081;-85
2023/05/24 08:02:47;;;;;;;24.05;22.23;;;;;;;23.21;100.00;100887.09;5034420;28;20486;-85
2023/05/24 08:05:15;;;;;;;24.92;22.77;;;;;;;23.32;100.00;100895.91;5042783;28;20041;-85
2023/05/24 08:07:45;;;;;;;24.52;22.55;;;;;;;23.68;100.00;100898.22;5040764;28;20056;-77
2023/05/24 08:10:12;;;;;;;24.88;23.02;;;;;;;23.54;100.00;100888.09;5041498;28;20054;-85
2023/05/24 08:12:39;;;;;;;24.48;22.60;;;;;;;23.22;100.00;100894.13;5042652;28;20107;-85
2023/05/24 08:15:07;;;;;;;26.23;24.23;;;;;;;23.70;100.00;100893.38;5043816;28;20556;-85
2023/05/24 08:17:34;;;;;;;25.77;23.77;;;;;;;23.32;100.00;100888.59;5043327;28;20454;-85
2023/05/24 08:20:04;;;;;;;25.00;23.10;;;;;;;23.28;100.00;100884.03;5042295;28;20045;-78
2023/05/24 08:22:32;;;;;;;27.20;24.95;;;;;;;23.31;100.00;100892.41;5040195;28;20060;-78
2023/05/24 08:24:59;;;;;;;25.00;22.65;;;;;;;23.15;100.00;100892.81;5039971;28;20128;-78
2023/05/24 08:27:27;;;;;;;24.67;22.63;;;;;;;22.97;100.00;100905.19;5035092;28;20057;-78
2023/05/24 08:29:54;;;;;;;25.83;24.00;;;;;;;23.87;100.00;100893.69;5036582;28;20458;-78
2023/05/24 08:32:21;;;;;;;26.77;24.77;;;;;;;23.99;100.00;100899.50;5040359;28;20051;-78
2023/05/24 08:34:48;;;;;;;24.85;22.75;;;;;;;24.04;100.00;100904.03;5039740;28;20094;-78
2023/05/24 08:37:19;;;;;;;23.98;21.85;;;;;;;24.10;100.00;100893.94;5034539;28;20056;-84
2023/05/24 08:39:46;;;;;;;23.88;21.83;;;;;;;23.75;100.00;100902.25;5039609;28;20053;-78
2023/05/24 08:42:13;;;;;;;22.40;20.60;;;;;;;23.93;100.00;100899.84;5042070;28;20049;-76
2023/05/24 08:44:44;;;;;;;24.05;22.15;;;;;;;24.03;100.00;100899.72;5041613;28;20558;-76
2023/05/24 08:47:12;;;;;;;23.90;21.95;;;;;;;24.42;100.00;100895.97;5036459;28;20057;-76
2023/05/24 08:49:40;;;;;;;23.65;21.83;;;;;;;23.28;100.00;100903.00;5035135;28;20049;-76
2023/05/24 08:52:07;;;;;;;24.20;22.33;;;;;;;24.64;100.00;100896.16;5039864;28;20053;-76
2023/05/24 08:54:36;;;;;;;23.23;21.52;;;;;;;24.44;100.00;100896.47;5041873;28;20048;-76
2023/05/24 08:57:04;;;;;;;22.48;20.67;;;;;;;24.17;100.00;100899.78;5042157;28;20061;-82
2023/05/24 08:59:31;;;;;;;24.63;22.63;;;;;;;24.13;100.00;100905.00;5044381;28;20056;-85
2023/05/24 09:01:59;;;;;;;23.75;21.55;;;;;;;24.26;100.00;100892.63;5033440;28;20487;-78
2023/05/24 09:04:27;;;;;;;28.10;26.30;;;;;;;24.68;100.00;100891.72;5041505;28;20537;-85
2023/05/24 09:06:56;;;;;;;26.25;24.38;;;;;;;24.57;100.00;100901.16;5036543;28;20045;-84
2023/05/24 09:09:27;;;;;;;26.85;24.80;;;;;;;23.85;100.00;100897.81;5044144;28;20052;-82
2023/05/24 09:12:01;;;;;;;25.20;23.30;;;;;;;23.79;100.00;100901.66;5039432;28;20132;-83
2023/05/24 09:14:29;;;;;;;26.83;24.95;;;;;;;24.24;100.00;100892.13;5035909;28;20046;-80
2023/05/24 09:16:57;;;;;;;27.85;25.75;;;;;;;23.80;100.00;100897.84;5041624;28;20056;-83
2023/05/24 09:19:26;;;;;;;26.92;25.00;;;;;;;24.44;100.00;100893.75;5039000;28;20434;-85
2023/05/24 09:21:54;;;;;;;27.30;25.38;;;;;;;24.27;100.00;100896.13;5039312;28;20049;-78
2023/05/24 09:24:23;;;;;;;26.05;23.95;;;;;;;25.17;100.00;100902.34;5044584;28;20071;-78
2023/05/24 09:26:50;;;;;;;27.52;25.13;;;;;;;24.64;100.00;100893.44;5049937;28;20049;-85
2023/05/24 09:29:23;;;;;;;28.75;26.65;;;;;;;25.52;100.00;100893.53;5044101;28;20052;-86
2023/05/24 09:31:50;;;;;;;26.90;24.77;;;;;;;25.48;100.00;100894.47;5038987;28;20045;-85
2023/05/24 09:34:17;;;;;;;26.77;24.73;;;;;;;24.05;100.00;100894.81;5038095;28;20079;-78
2023/05/24 09:36:47;;;;;;;26.30;24.10;;;;;;;24.74;100.00;100895.16;5037582;28;20491;-84
2023/05/24 09:39:15;;;;;;;25.77;23.50;;;;;;;24.87;100.00;100891.72;5041317;28;20110;-84
2023/05/24 09:41:44;;;;;;;26.67;24.55;;;;;;;24.77;100.00;100891.06;5034530;28;20049;-82
2023/05/24 09:44:14;;;;;;;26.60;24.50;;;;;;;24.80;100.00;100888.56;5040668;28;20085;-83
2023/05/24 09:46:42;;;;;;;26.33;23.92;;;;;;;25.00;100.00;100892.84;5037599;28;20057;-83
2023/05/24 09:49:09;;;;;;;25.90;23.80;;;;;;;25.56;100.00;100888.28;5039283;28;20052;-83
2023/05/24 09:51:37;;;;;;;26.77;24.58;;;;;;;25.52;100.00;100881.84;5041519;28;20069;-83
2023/05/24 09:54:06;;;;;;;26.33;24.13;;;;;;;25.02;100.00;100887.91;5036421;28;20107;-83
2023/05/24 09:56:34;;;;;;;24.58;22.63;;;;;;;23.88;100.00;100892.59;5030280;28;20143;-82
2023/05/24 09:59:07;;;;;;;26.10;23.98;;;;;;;25.48;100.00;100889.03;5035302;28;20517;-83
2023/05/24 10:01:34;;;;;;;;;;;;;;;25.35;100.00;100882.44;5044555;28;20053;-83
2023/05/24 10:04:05;;;;;;;26.05;23.85;;;;;;;26.10;100.00;100883.94;5043610;28;20019;-83
2023/05/24 10:06:36;;;;;;;25.30;23.25;;;;;;;26.11;100.00;100879.28;5037571;28;20050;-85
2023/05/24 10:09:05;;;;;;;24.77;23.00;;;;;;;25.69;100.00;100870.34;5039847;28;20476;-85
2023/05/24 10:11:32;;;;;;;23.88;21.92;;;;;;;25.76;100.00;100881.66;5040646;28;20056;-85
2023/05/24 10:13:59;;;;;;;23.52;21.73;;;;;;;24.72;100.00;100870.25;5040005;28;20056;-85
2023/05/24 10:16:26;;;;;;;23.17;21.08;;;;;;;26.48;100.00;100865.34;5036513;28;20049;-85
2023/05/24 10:18:55;;;;;;;21.83;19.85;;;;;;;25.57;100.00;100876.31;5033597;28;20049;-84
2023/05/24 10:21:24;;;;;;;21.92;20.23;;;;;;;25.16;100.00;100870.84;5037949;28;20119;-83
2023/05/24 10:23:55;;;;;;;22.25;20.45;;;;;;;26.10;100.00;100872.25;5037680;28;20045;-83
2023/05/24 10:26:26;;;;;;;23.67;21.70;;;;;;;25.94;100.00;100866.34;5036912;28;20403;-77
2023/05/24 10:28:57;;;;;;;23.02;21.00;;;;;;;26.18;100.00;100869.59;5045295;28;20056;-76
2023/05/24 10:31:28;;;;;;;22.30;20.55;;;;;;;27.06;100.00;100858.19;5038195;28;20049;-83
2023/05/24 10:33:58;;;;;;;23.17;21.20;;;;;;;26.95;100.00;100859.56;5040076;28;20083;-83
2023/05/24 10:36:27;;;;;;;22.13;20.63;;;;;;;25.48;100.00;100864.56;5043292;28;20071;-76
2023/05/24 10:38:54;;;;;;;23.92;21.67;;;;;;;25.01;94.76;100856.41;5047210;28;20114;-76
2023/05/24 10:41:21;;;;;;;22.02;20.27;;;;;;;26.31;100.00;100857.03;5040595;28;20049;-83
2023/05/24 10:43:48;;;;;;;23.33;21.52;;;;;;;25.81;100.00;100849.75;5038051;28;20046;-77
2023/05/24 10:46:16;;;;;;;23.90;22.13;;;;;;;23.79;100.00;100850.94;5046108;28;20053;-82
2023/05/24 10:48:43;;;;;;;23.90;22.05;;;;;;;24.88;100.00;100849.84;5042924;28;20073;-82
2023/05/24 10:51:40;;;;;;;23.85;21.83;;;;;;;25.77;100.00;100843.25;5044583;28;20050;-83
2023/05/24 10:54:18;;;;;;;24.02;22.33;;;;;;;26.88;100.00;100840.16;5040061;28;20111;-84
2023/05/24 10:56:46;;;;;;;23.45;21.55;;;;;;;26.79;82.32;100825.69;5032719;28;20061;-83
2023/05/24 10:59:39;;;;;;;22.67;20.60;;;;;;;26.39;94.39;100822.84;5038682;28;20049;-83
2023/05/24 11:02:12;;;;;;;22.88;20.95;;;;;;;25.85;100.00;100827.38;5041188;28;20528;-84
2023/05/24 11:04:42;;;;;;;21.77;19.90;;;;;;;25.27;100.00;100820.66;5036799;28;20049;-85
2023/05/24 11:07:10;;;;;;;22.80;21.00;;;;;;;25.59;100.00;100817.00;5043971;28;20492;-85